createdAt,value
2022-08-03T13:41:54.174Z,83.20
2022-08-03T13:44:29.837Z,83.00
2022-08-03T13:47:00.942Z,82.20
2022-08-03T13:49:30.260Z,81.60
2022-08-03T13:51:59.557Z,80.70
2022-08-03T13:54:30.251Z,80.60
2022-08-03T13:58:06.664Z,81.20
2022-08-03T13:59:51.107Z,81.20
2022-08-03T14:02:20.412Z,80.60
2022-08-03T14:04:49.591Z,80.60
2022-08-03T14:07:18.963Z,80.80
2022-08-03T14:09:48.196Z,80.60
2022-08-03T14:12:19.126Z,80.10
2022-08-03T14:14:48.333Z,80.10
2022-08-03T14:17:17.747Z,80.00
2022-08-03T14:19:53.256Z,79.90
2022-08-03T14:22:23.431Z,79.60
2022-08-03T14:24:52.705Z,79.10
2022-08-03T14:27:23.656Z,78.80
2022-08-03T14:29:52.853Z,78.70
2022-08-03T14:32:21.983Z,78.50
2022-08-03T14:34:51.132Z,78.40
2022-08-03T14:37:21.012Z,77.90
2022-08-03T14:40:05.854Z,77.60
2022-08-03T14:42:36.519Z,77.40
2022-08-03T14:45:09.551Z,77.10
2022-08-03T14:50:29.597Z,77.10
2022-08-03T14:50:44.143Z,76.70
2022-08-03T14:53:17.700Z,76.30
2022-08-03T14:55:50.586Z,76.30
2022-08-03T14:58:22.614Z,76.20
2022-08-03T15:00:52.998Z,76.30
2022-08-03T15:03:24.993Z,76.20
2022-08-03T15:05:55.414Z,75.90
2022-08-03T15:08:25.841Z,75.90
2022-08-03T15:10:55.687Z,75.70
2022-08-03T15:13:27.163Z,75.70
2022-08-03T15:15:57.816Z,75.70
2022-08-03T15:18:26.988Z,75.50
2022-08-03T15:20:56.225Z,75.10
2022-08-03T15:23:26.499Z,75.30
2022-08-03T15:26:28.792Z,75.40
2022-08-03T15:28:46.305Z,75.20
2022-08-03T15:31:18.887Z,75.10
2022-08-03T15:33:48.297Z,75.00
2022-08-03T15:36:18.145Z,75.00
2022-08-03T15:38:47.773Z,74.60
2022-08-03T15:41:17.175Z,74.90
2022-08-03T15:43:48.177Z,74.70
2022-08-03T15:46:29.241Z,74.70
2022-08-03T15:48:59.220Z,74.50
2022-08-03T15:51:28.332Z,74.30
2022-08-03T15:53:57.511Z,74.20
2022-08-03T15:56:27.183Z,73.90
2022-08-03T15:59:09.201Z,74.00
2022-08-03T16:01:42.873Z,74.20
2022-08-03T16:04:12.007Z,74.20
2022-08-03T16:06:41.262Z,74.60
2022-08-03T16:09:22.979Z,74.00
2022-08-03T16:12:00.345Z,73.90
2022-08-03T16:14:38.946Z,73.70
2022-08-03T16:17:16.135Z,73.80
2022-08-03T16:19:45.281Z,73.80
2022-08-03T16:22:14.708Z,73.90
2022-08-03T16:24:44.062Z,73.70
2022-08-03T16:27:36.981Z,74.30
2022-08-03T16:30:04.139Z,73.50
2022-08-03T16:32:33.452Z,73.50
2022-08-03T16:35:02.985Z,73.50
2022-08-03T16:37:39.689Z,73.20
2022-08-03T16:40:19.001Z,73.40
2022-08-03T16:42:49.035Z,73.40
2022-08-03T16:45:19.653Z,73.50
2022-08-03T16:48:01.258Z,73.30
2022-08-03T16:50:36.318Z,73.30
2022-08-03T16:53:09.827Z,73.40
2022-08-03T16:55:48.868Z,73.20
2022-08-03T16:58:24.309Z,73.20
2022-08-03T17:01:10.842Z,73.60
2022-08-03T17:04:02.789Z,73.20
2022-08-03T17:06:36.566Z,73.10
2022-08-03T17:09:08.732Z,73.00
2022-08-03T17:11:47.307Z,72.90
2022-08-03T17:14:21.737Z,73.00
2022-08-03T17:16:54.743Z,72.90
2022-08-03T17:19:26.609Z,72.80
2022-08-03T17:22:04.165Z,72.90
2022-08-03T17:24:41.037Z,72.70
2022-08-03T17:28:42.052Z,73.00
2022-08-03T17:30:08.841Z,72.70
2022-08-03T17:32:56.646Z,72.70
2022-08-03T17:35:36.431Z,72.60
2022-08-03T17:38:13.806Z,72.80
2022-08-03T17:40:49.957Z,72.60
2022-08-03T17:44:13.194Z,72.60
2022-08-03T17:46:12.270Z,72.70
2022-08-03T17:48:43.120Z,72.60
2022-08-03T17:51:17.989Z,72.60
2022-08-03T17:54:18.405Z,72.50
2022-08-03T17:56:56.185Z,72.60
2022-08-03T17:59:52.125Z,72.50
2022-08-03T18:02:55.154Z,72.40
2022-08-03T18:06:10.469Z,72.50
2022-08-03T18:08:24.943Z,72.60
2022-08-03T18:11:03.536Z,72.50
2022-08-03T18:13:57.551Z,72.50
2022-08-03T18:16:33.599Z,72.30
2022-08-03T18:19:09.661Z,72.40
2022-08-03T18:22:02.597Z,72.20
2022-08-03T18:24:33.387Z,72.10
2022-08-03T18:27:03.483Z,72.20
2022-08-03T18:29:33.787Z,72.20
2022-08-03T18:32:06.111Z,72.10
2022-08-03T18:37:30.844Z,72.10
2022-08-03T18:40:21.100Z,72.00
2022-08-03T18:42:53.019Z,72.00
2022-08-03T18:45:58.052Z,71.90
2022-08-03T18:48:20.049Z,72.00
2022-08-03T18:51:06.777Z,72.00
2022-08-03T18:54:02.564Z,72.20
2022-08-03T18:56:42.729Z,72.10
2022-08-03T18:59:17.578Z,72.00
2022-08-03T19:02:06.092Z,72.00
2022-08-03T19:04:45.805Z,71.90
2022-08-03T19:07:22.257Z,71.80
2022-08-03T19:09:55.714Z,71.90
2022-08-03T19:12:33.820Z,71.90
2022-08-03T19:15:10.425Z,71.80
2022-08-03T19:17:52.991Z,71.80
2022-08-03T19:20:24.972Z,71.70
2022-08-03T19:22:56.254Z,71.70
2022-08-03T19:25:34.584Z,71.60
2022-08-03T19:28:07.198Z,71.60
2022-08-03T19:30:38.613Z,71.70
2022-08-03T19:33:09.615Z,71.60
2022-08-03T19:35:51.773Z,71.50
2022-08-03T19:38:28.311Z,71.60
2022-08-03T19:41:03.036Z,71.50
2022-08-03T19:43:53.533Z,71.50
2022-08-03T19:46:27.710Z,71.60
2022-08-03T19:49:03.031Z,71.60
2022-08-03T19:52:00.534Z,71.50
2022-08-03T19:54:29.896Z,71.60
2022-08-03T19:57:04.711Z,71.60
2022-08-03T19:59:49.664Z,71.60
2022-08-03T20:02:27.249Z,71.60
2022-08-03T20:04:57.905Z,71.60
2022-08-03T20:07:31.098Z,71.60
2022-08-03T20:10:01.874Z,71.60
2022-08-03T20:12:39.192Z,71.50
2022-08-03T20:15:31.237Z,71.50
2022-08-03T20:18:01.399Z,71.50
2022-08-03T20:20:33.626Z,71.50
2022-08-03T20:23:07.716Z,71.40
2022-08-03T20:28:34.593Z,71.40
2022-08-03T20:31:03.832Z,71.30
2022-08-03T20:33:48.455Z,71.30
2022-08-03T20:36:19.029Z,71.20
2022-08-03T20:38:49.070Z,71.30
2022-08-03T20:41:20.719Z,71.20
2022-08-03T20:43:51.396Z,71.20
2022-08-03T20:46:29.063Z,71.10
2022-08-03T20:49:04.185Z,71.00
2022-08-03T20:51:50.101Z,71.10
2022-08-03T20:54:30.468Z,71.30
2022-08-03T20:57:03.681Z,71.20
2022-08-03T20:59:50.078Z,71.30
2022-08-03T21:02:30.071Z,71.30
2022-08-03T21:05:02.983Z,71.20
2022-08-03T21:07:45.967Z,71.30
2022-08-03T21:10:33.571Z,71.30
2022-08-03T21:13:05.402Z,72.00
2022-08-03T21:13:06.879Z,71.40
2022-08-03T21:13:17.406Z,71.30
2022-08-03T21:16:06.563Z,71.30
2022-08-03T21:18:46.765Z,72.10
2022-08-03T21:21:18.878Z,71.30
2022-08-03T21:23:52.717Z,71.20
2022-08-03T21:26:24.862Z,71.20
2022-08-03T21:28:56.451Z,71.20
2022-08-03T21:31:27.252Z,71.10
2022-08-03T21:33:58.010Z,71.10
2022-08-03T21:36:29.225Z,71.00
2022-08-03T21:38:58.955Z,71.10
2022-08-03T21:41:29.412Z,71.00
2022-08-03T21:43:59.392Z,71.00
2022-08-03T21:46:35.887Z,70.90
2022-08-03T21:50:05.267Z,70.90
2022-08-03T21:52:00.481Z,70.90
2022-08-03T21:54:34.866Z,70.90
2022-08-03T21:57:07.350Z,70.90
2022-08-03T21:59:38.706Z,70.90
2022-08-03T22:02:11.508Z,71.00
2022-08-03T22:04:56.253Z,70.90
2022-08-03T22:07:28.352Z,70.90
2022-08-03T22:09:59.916Z,71.00
2022-08-03T22:12:31.217Z,71.00
2022-08-03T22:15:02.314Z,71.00
2022-08-03T22:17:56.460Z,71.00
2022-08-03T22:20:24.672Z,71.10
2022-08-03T22:22:57.867Z,71.00
2022-08-03T22:25:30.787Z,71.10
2022-08-03T22:28:02.777Z,71.00
2022-08-03T22:30:33.341Z,71.10
2022-08-03T22:33:11.264Z,71.00
2022-08-03T22:35:47.377Z,71.00
2022-08-03T22:38:18.944Z,71.00
2022-08-03T22:40:51.163Z,70.90
2022-08-03T22:43:24.302Z,71.00
2022-08-03T22:46:09.023Z,70.90
2022-08-03T22:48:43.216Z,70.90
2022-08-03T22:51:12.453Z,70.90
2022-08-03T22:53:41.826Z,71.00
2022-08-03T22:56:11.570Z,70.80
2022-08-03T22:58:40.819Z,70.80
2022-08-03T23:01:11.319Z,70.80
2022-08-03T23:04:00.775Z,70.80
2022-08-03T23:06:36.004Z,70.80
2022-08-03T23:09:11.097Z,70.70
2022-08-03T23:11:42.995Z,70.70
2022-08-03T23:14:18.011Z,70.90
2022-08-03T23:16:48.600Z,70.80
2022-08-03T23:19:25.449Z,70.90
2022-08-03T23:22:02.571Z,70.90
2022-08-03T23:24:36.226Z,70.90
2022-08-03T23:27:06.865Z,70.90
2022-08-03T23:29:37.439Z,70.90
2022-08-03T23:32:08.264Z,70.80
2022-08-03T23:34:58.199Z,70.90
2022-08-03T23:37:28.142Z,70.80
2022-08-03T23:39:59.876Z,70.80
2022-08-03T23:42:29.660Z,71.00
2022-08-03T23:45:05.775Z,70.90
2022-08-03T23:47:46.341Z,70.90
2022-08-03T23:50:18.858Z,71.00
2022-08-03T23:52:57.110Z,70.90
2022-08-03T23:55:47.212Z,70.80
2022-08-03T23:58:31.863Z,70.80
